sensor_id;sensor_type;location;lat;lon;timestamp;P1;durP1;ratioP1;P2;durP2;ratioP2
47113;SDS011;32867;51.556;6.832;2023-08-17T00:01:12;6.60;;;2.55;;
47113;SDS011;32867;51.556;6.832;2023-08-17T00:06:13;4.00;;;2.22;;
47113;SDS011;32867;51.556;6.832;2023-08-17T00:11:13;5.25;;;1.92;;
47113;SDS011;32867;51.556;6.832;2023-08-17T00:16:14;4.15;;;2.10;;
47113;SDS011;32867;51.556;6.832;2023-08-17T00:21:15;4.03;;;2.10;;
47113;SDS011;32867;51.556;6.832;2023-08-17T00:26:16;5.85;;;2.40;;
47113;SDS011;32867;51.556;6.832;2023-08-17T00:31:16;4.82;;;2.20;;
47113;SDS011;32867;51.556;6.832;2023-08-17T00:36:17;5.88;;;2.58;;
47113;SDS011;32867;51.556;6.832;2023-08-17T00:41:18;4.38;;;1.98;;
47113;SDS011;32867;51.556;6.832;2023-08-17T00:46:20;3.13;;;1.88;;
47113;SDS011;32867;51.556;6.832;2023-08-17T00:51:24;4.22;;;2.30;;
47113;SDS011;32867;51.556;6.832;2023-08-17T00:56:26;3.67;;;1.92;;
47113;SDS011;32867;51.556;6.832;2023-08-17T01:01:29;5.40;;;2.35;;
47113;SDS011;32867;51.556;6.832;2023-08-17T01:06:30;5.32;;;2.90;;
47113;SDS011;32867;51.556;6.832;2023-08-17T01:11:36;5.43;;;2.45;;
47113;SDS011;32867;51.556;6.832;2023-08-17T01:16:52;7.28;;;2.55;;
47113;SDS011;32867;51.556;6.832;2023-08-17T01:22:02;4.95;;;2.42;;
47113;SDS011;32867;51.556;6.832;2023-08-17T01:27:05;5.38;;;2.45;;
47113;SDS011;32867;51.556;6.832;2023-08-17T01:32:10;4.25;;;2.10;;
47113;SDS011;32867;51.556;6.832;2023-08-17T01:37:18;6.63;;;2.40;;
47113;SDS011;32867;51.556;6.832;2023-08-17T01:42:23;6.93;;;2.20;;
47113;SDS011;32867;51.556;6.832;2023-08-17T01:47:25;5.40;;;2.35;;
47113;SDS011;32867;51.556;6.832;2023-08-17T01:52:26;5.53;;;2.42;;
47113;SDS011;32867;51.556;6.832;2023-08-17T01:57:28;4.18;;;2.40;;
47113;SDS011;32867;51.556;6.832;2023-08-17T02:02:31;4.93;;;2.63;;
47113;SDS011;32867;51.556;6.832;2023-08-17T02:07:32;5.75;;;2.55;;
47113;SDS011;32867;51.556;6.832;2023-08-17T02:12:32;5.10;;;2.67;;
47113;SDS011;32867;51.556;6.832;2023-08-17T02:17:33;5.50;;;2.50;;
47113;SDS011;32867;51.556;6.832;2023-08-17T02:22:34;5.40;;;2.28;;
47113;SDS011;32867;51.556;6.832;2023-08-17T02:27:35;6.18;;;2.40;;
47113;SDS011;32867;51.556;6.832;2023-08-17T02:32:36;7.95;;;3.25;;
47113;SDS011;32867;51.556;6.832;2023-08-17T02:37:37;6.45;;;2.85;;
47113;SDS011;32867;51.556;6.832;2023-08-17T02:42:38;5.03;;;2.28;;
47113;SDS011;32867;51.556;6.832;2023-08-17T02:47:40;7.15;;;2.70;;
47113;SDS011;32867;51.556;6.832;2023-08-17T02:52:42;3.88;;;2.25;;
47113;SDS011;32867;51.556;6.832;2023-08-17T02:57:43;4.03;;;2.30;;
47113;SDS011;32867;51.556;6.832;2023-08-17T03:02:43;4.70;;;2.20;;
47113;SDS011;32867;51.556;6.832;2023-08-17T03:07:44;5.13;;;2.15;;
47113;SDS011;32867;51.556;6.832;2023-08-17T03:12:45;4.28;;;2.10;;
47113;SDS011;32867;51.556;6.832;2023-08-17T03:17:46;5.50;;;2.60;;
47113;SDS011;32867;51.556;6.832;2023-08-17T03:22:47;4.38;;;2.20;;
47113;SDS011;32867;51.556;6.832;2023-08-17T03:27:47;4.00;;;2.13;;
47113;SDS011;32867;51.556;6.832;2023-08-17T03:32:50;4.63;;;2.60;;
47113;SDS011;32867;51.556;6.832;2023-08-17T03:37:50;6.68;;;2.90;;
47113;SDS011;32867;51.556;6.832;2023-08-17T03:42:51;6.10;;;2.60;;
47113;SDS011;32867;51.556;6.832;2023-08-17T03:47:52;5.10;;;2.70;;
47113;SDS011;32867;51.556;6.832;2023-08-17T03:52:53;4.43;;;2.55;;
47113;SDS011;32867;51.556;6.832;2023-08-17T03:57:55;8.02;;;3.00;;
47113;SDS011;32867;51.556;6.832;2023-08-17T04:02:56;5.40;;;2.90;;
47113;SDS011;32867;51.556;6.832;2023-08-17T04:07:58;4.63;;;2.90;;
47113;SDS011;32867;51.556;6.832;2023-08-17T04:13:03;5.53;;;2.50;;
47113;SDS011;32867;51.556;6.832;2023-08-17T04:18:04;5.88;;;3.10;;
47113;SDS011;32867;51.556;6.832;2023-08-17T04:23:05;5.05;;;2.55;;
47113;SDS011;32867;51.556;6.832;2023-08-17T04:28:08;3.90;;;2.22;;
47113;SDS011;32867;51.556;6.832;2023-08-17T04:33:09;4.68;;;2.40;;
47113;SDS011;32867;51.556;6.832;2023-08-17T04:38:10;6.20;;;2.92;;
47113;SDS011;32867;51.556;6.832;2023-08-17T04:43:12;4.78;;;2.40;;
47113;SDS011;32867;51.556;6.832;2023-08-17T04:48:13;5.40;;;2.70;;
47113;SDS011;32867;51.556;6.832;2023-08-17T04:53:14;4.68;;;2.40;;
47113;SDS011;32867;51.556;6.832;2023-08-17T04:58:16;4.50;;;2.40;;
47113;SDS011;32867;51.556;6.832;2023-08-17T05:03:17;4.72;;;2.40;;
47113;SDS011;32867;51.556;6.832;2023-08-17T05:08:17;4.97;;;2.63;;
47113;SDS011;32867;51.556;6.832;2023-08-17T05:13:19;5.28;;;2.40;;
47113;SDS011;32867;51.556;6.832;2023-08-17T05:18:21;6.75;;;2.70;;
47113;SDS011;32867;51.556;6.832;2023-08-17T05:23:22;3.83;;;2.38;;
47113;SDS011;32867;51.556;6.832;2023-08-17T05:28:23;4.80;;;2.60;;
47113;SDS011;32867;51.556;6.832;2023-08-17T05:33:24;5.03;;;2.40;;
47113;SDS011;32867;51.556;6.832;2023-08-17T05:38:26;3.85;;;2.15;;
47113;SDS011;32867;51.556;6.832;2023-08-17T05:43:27;5.47;;;2.65;;
47113;SDS011;32867;51.556;6.832;2023-08-17T05:48:29;4.20;;;2.22;;
47113;SDS011;32867;51.556;6.832;2023-08-17T05:53:32;5.80;;;2.63;;
47113;SDS011;32867;51.556;6.832;2023-08-17T05:58:33;4.95;;;2.45;;
47113;SDS011;32867;51.556;6.832;2023-08-17T06:03:34;5.53;;;2.70;;
47113;SDS011;32867;51.556;6.832;2023-08-17T06:08:36;5.15;;;2.47;;
47113;SDS011;32867;51.556;6.832;2023-08-17T06:13:37;4.85;;;2.42;;
47113;SDS011;32867;51.556;6.832;2023-08-17T06:18:38;4.85;;;2.60;;
47113;SDS011;32867;51.556;6.832;2023-08-17T06:23:39;6.20;;;2.72;;
47113;SDS011;32867;51.556;6.832;2023-08-17T06:28:40;5.05;;;2.58;;
47113;SDS011;32867;51.556;6.832;2023-08-17T06:33:41;3.95;;;2.30;;
47113;SDS011;32867;51.556;6.832;2023-08-17T06:38:41;7.93;;;3.22;;
47113;SDS011;32867;51.556;6.832;2023-08-17T06:43:42;4.85;;;3.00;;
47113;SDS011;32867;51.556;6.832;2023-08-17T06:48:43;5.85;;;2.88;;
47113;SDS011;32867;51.556;6.832;2023-08-17T06:53:45;4.47;;;2.55;;
47113;SDS011;32867;51.556;6.832;2023-08-17T06:58:46;6.95;;;3.03;;
47113;SDS011;32867;51.556;6.832;2023-08-17T07:03:46;7.10;;;3.58;;
47113;SDS011;32867;51.556;6.832;2023-08-17T07:08:47;7.03;;;2.70;;
47113;SDS011;32867;51.556;6.832;2023-08-17T07:13:48;8.93;;;3.72;;
47113;SDS011;32867;51.556;6.832;2023-08-17T07:18:48;8.23;;;3.63;;
47113;SDS011;32867;51.556;6.832;2023-08-17T07:23:50;7.05;;;3.75;;
47113;SDS011;32867;51.556;6.832;2023-08-17T07:28:57;9.48;;;5.03;;
47113;SDS011;32867;51.556;6.832;2023-08-17T07:33:58;8.77;;;5.10;;
47113;SDS011;32867;51.556;6.832;2023-08-17T07:38:59;9.50;;;4.95;;
47113;SDS011;32867;51.556;6.832;2023-08-17T07:44:00;10.55;;;4.50;;
47113;SDS011;32867;51.556;6.832;2023-08-17T07:49:00;8.25;;;4.45;;
47113;SDS011;32867;51.556;6.832;2023-08-17T07:54:01;8.32;;;4.38;;
47113;SDS011;32867;51.556;6.832;2023-08-17T07:59:02;6.45;;;4.15;;
47113;SDS011;32867;51.556;6.832;2023-08-17T08:04:03;7.93;;;4.40;;
47113;SDS011;32867;51.556;6.832;2023-08-17T08:09:05;7.97;;;4.53;;
47113;SDS011;32867;51.556;6.832;2023-08-17T08:14:06;9.18;;;4.93;;
47113;SDS011;32867;51.556;6.832;2023-08-17T08:19:07;5.97;;;3.95;;
47113;SDS011;32867;51.556;6.832;2023-08-17T08:24:07;7.53;;;4.68;;
47113;SDS011;32867;51.556;6.832;2023-08-17T08:29:08;7.90;;;4.90;;
47113;SDS011;32867;51.556;6.832;2023-08-17T08:34:09;11.45;;;5.50;;
47113;SDS011;32867;51.556;6.832;2023-08-17T08:39:11;9.80;;;5.15;;
47113;SDS011;32867;51.556;6.832;2023-08-17T08:44:13;9.80;;;5.80;;
47113;SDS011;32867;51.556;6.832;2023-08-17T08:49:16;10.07;;;5.97;;
47113;SDS011;32867;51.556;6.832;2023-08-17T08:54:21;10.65;;;6.05;;
47113;SDS011;32867;51.556;6.832;2023-08-17T08:59:23;8.57;;;5.63;;
47113;SDS011;32867;51.556;6.832;2023-08-17T09:04:24;9.32;;;7.15;;
47113;SDS011;32867;51.556;6.832;2023-08-17T09:09:25;8.77;;;6.40;;
47113;SDS011;32867;51.556;6.832;2023-08-17T09:14:26;9.38;;;6.25;;
47113;SDS011;32867;51.556;6.832;2023-08-17T09:19:27;11.38;;;6.68;;
47113;SDS011;32867;51.556;6.832;2023-08-17T09:24:33;8.88;;;6.30;;
47113;SDS011;32867;51.556;6.832;2023-08-17T09:29:35;9.60;;;6.40;;
47113;SDS011;32867;51.556;6.832;2023-08-17T09:34:38;10.00;;;6.72;;
47113;SDS011;32867;51.556;6.832;2023-08-17T09:39:41;10.48;;;6.25;;
47113;SDS011;32867;51.556;6.832;2023-08-17T09:44:42;8.93;;;6.85;;
47113;SDS011;32867;51.556;6.832;2023-08-17T09:49:49;11.02;;;7.25;;
47113;SDS011;32867;51.556;6.832;2023-08-17T09:54:53;12.40;;;7.15;;
47113;SDS011;32867;51.556;6.832;2023-08-17T09:59:55;10.35;;;7.70;;
47113;SDS011;32867;51.556;6.832;2023-08-17T10:04:56;12.35;;;10.27;;
47113;SDS011;32867;51.556;6.832;2023-08-17T10:10:04;11.38;;;8.43;;
47113;SDS011;32867;51.556;6.832;2023-08-17T10:15:10;10.05;;;7.05;;
47113;SDS011;32867;51.556;6.832;2023-08-17T10:20:12;12.60;;;9.73;;
47113;SDS011;32867;51.556;6.832;2023-08-17T10:25:15;12.23;;;9.15;;
47113;SDS011;32867;51.556;6.832;2023-08-17T10:30:16;12.70;;;9.90;;
47113;SDS011;32867;51.556;6.832;2023-08-17T10:35:17;12.13;;;8.60;;
47113;SDS011;32867;51.556;6.832;2023-08-17T10:40:25;13.95;;;7.97;;
47113;SDS011;32867;51.556;6.832;2023-08-17T10:45:30;15.00;;;10.15;;
47113;SDS011;32867;51.556;6.832;2023-08-17T10:50:32;13.25;;;10.25;;
47113;SDS011;32867;51.556;6.832;2023-08-17T10:55:40;12.82;;;8.85;;
47113;SDS011;32867;51.556;6.832;2023-08-17T11:00:42;10.20;;;8.55;;
47113;SDS011;32867;51.556;6.832;2023-08-17T11:16:06;12.85;;;10.32;;
47113;SDS011;32867;51.556;6.832;2023-08-17T11:21:09;14.05;;;11.70;;
47113;SDS011;32867;51.556;6.832;2023-08-17T11:26:10;16.42;;;13.80;;
47113;SDS011;32867;51.556;6.832;2023-08-17T11:31:12;15.25;;;13.65;;
47113;SDS011;32867;51.556;6.832;2023-08-17T11:36:14;18.02;;;16.00;;
47113;SDS011;32867;51.556;6.832;2023-08-17T11:41:15;17.20;;;15.38;;
47113;SDS011;32867;51.556;6.832;2023-08-17T11:46:15;18.88;;;16.13;;
47113;SDS011;32867;51.556;6.832;2023-08-17T11:51:19;17.00;;;15.20;;
47113;SDS011;32867;51.556;6.832;2023-08-17T11:56:30;14.40;;;12.25;;
47113;SDS011;32867;51.556;6.832;2023-08-17T12:01:32;14.30;;;12.20;;
47113;SDS011;32867;51.556;6.832;2023-08-17T12:06:37;10.93;;;9.57;;
47113;SDS011;32867;51.556;6.832;2023-08-17T12:11:44;12.02;;;10.40;;
47113;SDS011;32867;51.556;6.832;2023-08-17T12:16:49;12.60;;;9.75;;
47113;SDS011;32867;51.556;6.832;2023-08-17T12:21:50;11.25;;;10.07;;
47113;SDS011;32867;51.556;6.832;2023-08-17T12:26:51;14.85;;;9.98;;
47113;SDS011;32867;51.556;6.832;2023-08-17T12:31:52;12.63;;;10.30;;
47113;SDS011;32867;51.556;6.832;2023-08-17T12:36:52;10.35;;;7.95;;
47113;SDS011;32867;51.556;6.832;2023-08-17T12:41:53;13.30;;;9.45;;
47113;SDS011;32867;51.556;6.832;2023-08-17T12:46:54;9.95;;;7.95;;
47113;SDS011;32867;51.556;6.832;2023-08-17T12:51:54;10.20;;;8.98;;
47113;SDS011;32867;51.556;6.832;2023-08-17T12:56:55;14.00;;;9.80;;
47113;SDS011;32867;51.556;6.832;2023-08-17T13:01:56;14.75;;;10.98;;
47113;SDS011;32867;51.556;6.832;2023-08-17T13:06:56;11.15;;;9.90;;
47113;SDS011;32867;51.556;6.832;2023-08-17T13:11:57;18.27;;;14.32;;
47113;SDS011;32867;51.556;6.832;2023-08-17T13:16:58;19.05;;;11.55;;
47113;SDS011;32867;51.556;6.832;2023-08-17T13:21:58;11.82;;;10.05;;
47113;SDS011;32867;51.556;6.832;2023-08-17T13:26:59;10.82;;;9.40;;
47113;SDS011;32867;51.556;6.832;2023-08-17T13:32:00;13.07;;;9.68;;
47113;SDS011;32867;51.556;6.832;2023-08-17T13:37:01;12.63;;;10.40;;
47113;SDS011;32867;51.556;6.832;2023-08-17T13:42:03;12.88;;;10.25;;
47113;SDS011;32867;51.556;6.832;2023-08-17T13:47:04;11.07;;;8.63;;
47113;SDS011;32867;51.556;6.832;2023-08-17T13:52:04;11.27;;;8.55;;
47113;SDS011;32867;51.556;6.832;2023-08-17T13:57:05;11.80;;;9.23;;
47113;SDS011;32867;51.556;6.832;2023-08-17T14:02:07;11.73;;;7.63;;
47113;SDS011;32867;51.556;6.832;2023-08-17T14:07:08;10.45;;;7.95;;
47113;SDS011;32867;51.556;6.832;2023-08-17T14:12:09;9.77;;;8.57;;
47113;SDS011;32867;51.556;6.832;2023-08-17T14:17:09;10.15;;;7.40;;
47113;SDS011;32867;51.556;6.832;2023-08-17T14:22:10;10.98;;;8.52;;
47113;SDS011;32867;51.556;6.832;2023-08-17T14:27:11;10.23;;;7.97;;
47113;SDS011;32867;51.556;6.832;2023-08-17T14:32:11;9.82;;;7.55;;
47113;SDS011;32867;51.556;6.832;2023-08-17T14:37:12;10.95;;;7.45;;
47113;SDS011;32867;51.556;6.832;2023-08-17T14:42:13;9.98;;;7.38;;
47113;SDS011;32867;51.556;6.832;2023-08-17T14:47:13;9.82;;;7.60;;
47113;SDS011;32867;51.556;6.832;2023-08-17T14:52:14;8.52;;;6.93;;
47113;SDS011;32867;51.556;6.832;2023-08-17T14:57:15;11.40;;;7.88;;
47113;SDS011;32867;51.556;6.832;2023-08-17T15:02:15;10.02;;;6.57;;
47113;SDS011;32867;51.556;6.832;2023-08-17T15:07:18;9.70;;;6.82;;
47113;SDS011;32867;51.556;6.832;2023-08-17T15:12:18;8.35;;;6.50;;
47113;SDS011;32867;51.556;6.832;2023-08-17T15:17:19;9.20;;;6.45;;
47113;SDS011;32867;51.556;6.832;2023-08-17T15:22:20;9.60;;;6.38;;
47113;SDS011;32867;51.556;6.832;2023-08-17T15:27:22;9.23;;;7.07;;
47113;SDS011;32867;51.556;6.832;2023-08-17T15:32:23;8.55;;;5.80;;
47113;SDS011;32867;51.556;6.832;2023-08-17T15:37:24;9.18;;;5.82;;
47113;SDS011;32867;51.556;6.832;2023-08-17T15:42:25;9.20;;;5.60;;
47113;SDS011;32867;51.556;6.832;2023-08-17T15:47:25;9.68;;;5.93;;
47113;SDS011;32867;51.556;6.832;2023-08-17T15:52:26;11.27;;;6.80;;
47113;SDS011;32867;51.556;6.832;2023-08-17T15:57:27;13.07;;;6.15;;
47113;SDS011;32867;51.556;6.832;2023-08-17T16:02:28;8.43;;;6.00;;
47113;SDS011;32867;51.556;6.832;2023-08-17T16:07:28;10.45;;;7.03;;
47113;SDS011;32867;51.556;6.832;2023-08-17T16:12:29;8.30;;;5.45;;
47113;SDS011;32867;51.556;6.832;2023-08-17T16:17:30;9.68;;;6.53;;
47113;SDS011;32867;51.556;6.832;2023-08-17T16:22:30;6.97;;;5.57;;
47113;SDS011;32867;51.556;6.832;2023-08-17T16:27:31;9.55;;;7.50;;
47113;SDS011;32867;51.556;6.832;2023-08-17T16:32:33;9.77;;;7.53;;
47113;SDS011;32867;51.556;6.832;2023-08-17T16:37:34;9.90;;;6.47;;
47113;SDS011;32867;51.556;6.832;2023-08-17T16:42:34;9.63;;;6.60;;
47113;SDS011;32867;51.556;6.832;2023-08-17T16:47:35;9.70;;;5.97;;
47113;SDS011;32867;51.556;6.832;2023-08-17T16:52:37;7.38;;;5.70;;
47113;SDS011;32867;51.556;6.832;2023-08-17T16:57:37;8.48;;;5.25;;
47113;SDS011;32867;51.556;6.832;2023-08-17T17:02:38;6.60;;;5.13;;
47113;SDS011;32867;51.556;6.832;2023-08-17T17:07:39;8.50;;;5.97;;
47113;SDS011;32867;51.556;6.832;2023-08-17T17:12:39;8.73;;;5.93;;
47113;SDS011;32867;51.556;6.832;2023-08-17T17:17:40;7.60;;;5.43;;
47113;SDS011;32867;51.556;6.832;2023-08-17T17:22:41;7.53;;;5.57;;
47113;SDS011;32867;51.556;6.832;2023-08-17T17:27:41;8.73;;;5.30;;
47113;SDS011;32867;51.556;6.832;2023-08-17T17:32:42;8.00;;;6.78;;
47113;SDS011;32867;51.556;6.832;2023-08-17T17:37:43;8.30;;;6.63;;
47113;SDS011;32867;51.556;6.832;2023-08-17T17:42:43;10.23;;;6.57;;
47113;SDS011;32867;51.556;6.832;2023-08-17T17:47:45;9.80;;;7.00;;
47113;SDS011;32867;51.556;6.832;2023-08-17T17:52:46;9.45;;;7.53;;
47113;SDS011;32867;51.556;6.832;2023-08-17T17:57:46;8.13;;;6.40;;
47113;SDS011;32867;51.556;6.832;2023-08-17T18:02:47;8.82;;;6.93;;
47113;SDS011;32867;51.556;6.832;2023-08-17T18:07:48;8.93;;;7.22;;
47113;SDS011;32867;51.556;6.832;2023-08-17T18:12:48;8.23;;;6.75;;
47113;SDS011;32867;51.556;6.832;2023-08-17T18:17:51;9.65;;;8.32;;
47113;SDS011;32867;51.556;6.832;2023-08-17T18:22:51;13.13;;;8.90;;
47113;SDS011;32867;51.556;6.832;2023-08-17T18:27:54;13.43;;;9.98;;
47113;SDS011;32867;51.556;6.832;2023-08-17T18:32:54;12.85;;;10.73;;
47113;SDS011;32867;51.556;6.832;2023-08-17T18:37:55;10.75;;;9.10;;
47113;SDS011;32867;51.556;6.832;2023-08-17T18:42:56;11.13;;;9.93;;
47113;SDS011;32867;51.556;6.832;2023-08-17T18:47:56;11.40;;;8.98;;
47113;SDS011;32867;51.556;6.832;2023-08-17T18:52:57;11.98;;;9.93;;
47113;SDS011;32867;51.556;6.832;2023-08-17T18:57:58;11.45;;;9.55;;
47113;SDS011;32867;51.556;6.832;2023-08-17T19:02:59;12.05;;;10.40;;
47113;SDS011;32867;51.556;6.832;2023-08-17T19:08:01;11.00;;;9.02;;
47113;SDS011;32867;51.556;6.832;2023-08-17T19:13:02;11.27;;;9.20;;
47113;SDS011;32867;51.556;6.832;2023-08-17T19:18:02;11.48;;;9.50;;
47113;SDS011;32867;51.556;6.832;2023-08-17T19:23:03;9.27;;;8.00;;
47113;SDS011;32867;51.556;6.832;2023-08-17T19:28:05;10.63;;;8.30;;
47113;SDS011;32867;51.556;6.832;2023-08-17T19:33:06;9.85;;;7.60;;
47113;SDS011;32867;51.556;6.832;2023-08-17T19:38:07;12.13;;;7.95;;
47113;SDS011;32867;51.556;6.832;2023-08-17T19:43:10;8.98;;;6.97;;
47113;SDS011;32867;51.556;6.832;2023-08-17T19:48:12;13.00;;;8.90;;
47113;SDS011;32867;51.556;6.832;2023-08-17T19:53:13;10.50;;;8.80;;
47113;SDS011;32867;51.556;6.832;2023-08-17T19:58:14;8.15;;;6.88;;
47113;SDS011;32867;51.556;6.832;2023-08-17T20:03:14;8.93;;;7.60;;
47113;SDS011;32867;51.556;6.832;2023-08-17T20:08:17;9.15;;;6.63;;
47113;SDS011;32867;51.556;6.832;2023-08-17T20:13:17;8.18;;;6.07;;
47113;SDS011;32867;51.556;6.832;2023-08-17T20:18:20;9.45;;;7.38;;
47113;SDS011;32867;51.556;6.832;2023-08-17T20:23:23;7.32;;;4.97;;
47113;SDS011;32867;51.556;6.832;2023-08-17T20:28:25;8.32;;;5.68;;
47113;SDS011;32867;51.556;6.832;2023-08-17T20:33:27;9.60;;;5.28;;
47113;SDS011;32867;51.556;6.832;2023-08-17T20:38:28;7.47;;;6.07;;
47113;SDS011;32867;51.556;6.832;2023-08-17T20:43:31;6.30;;;4.97;;
47113;SDS011;32867;51.556;6.832;2023-08-17T20:48:32;5.85;;;4.78;;
47113;SDS011;32867;51.556;6.832;2023-08-17T20:53:32;5.70;;;4.10;;
47113;SDS011;32867;51.556;6.832;2023-08-17T20:58:34;6.03;;;4.80;;
47113;SDS011;32867;51.556;6.832;2023-08-17T21:03:35;6.15;;;4.22;;
47113;SDS011;32867;51.556;6.832;2023-08-17T21:08:36;6.00;;;4.50;;
47113;SDS011;32867;51.556;6.832;2023-08-17T21:13:37;6.75;;;4.65;;
47113;SDS011;32867;51.556;6.832;2023-08-17T21:18:38;7.45;;;5.38;;
47113;SDS011;32867;51.556;6.832;2023-08-17T21:23:39;5.90;;;4.78;;
47113;SDS011;32867;51.556;6.832;2023-08-17T21:28:40;7.25;;;4.70;;
47113;SDS011;32867;51.556;6.832;2023-08-17T21:33:42;6.47;;;4.80;;
47113;SDS011;32867;51.556;6.832;2023-08-17T21:38:43;10.18;;;5.78;;
47113;SDS011;32867;51.556;6.832;2023-08-17T21:43:43;8.73;;;4.50;;
47113;SDS011;32867;51.556;6.832;2023-08-17T21:48:46;7.25;;;4.60;;
47113;SDS011;32867;51.556;6.832;2023-08-17T21:53:46;8.70;;;6.03;;
47113;SDS011;32867;51.556;6.832;2023-08-17T21:58:47;6.10;;;4.90;;
47113;SDS011;32867;51.556;6.832;2023-08-17T22:03:49;8.20;;;5.40;;
47113;SDS011;32867;51.556;6.832;2023-08-17T22:08:53;7.88;;;5.45;;
47113;SDS011;32867;51.556;6.832;2023-08-17T22:13:54;7.63;;;4.88;;
47113;SDS011;32867;51.556;6.832;2023-08-17T22:18:55;8.52;;;4.75;;
47113;SDS011;32867;51.556;6.832;2023-08-17T22:23:56;7.18;;;5.43;;
47113;SDS011;32867;51.556;6.832;2023-08-17T22:28:58;6.22;;;4.82;;
47113;SDS011;32867;51.556;6.832;2023-08-17T22:33:59;7.20;;;4.90;;
47113;SDS011;32867;51.556;6.832;2023-08-17T22:39:00;8.90;;;5.47;;
47113;SDS011;32867;51.556;6.832;2023-08-17T22:44:05;8.18;;;5.00;;
47113;SDS011;32867;51.556;6.832;2023-08-17T22:49:07;8.30;;;5.25;;
47113;SDS011;32867;51.556;6.832;2023-08-17T22:54:08;7.00;;;5.18;;
47113;SDS011;32867;51.556;6.832;2023-08-17T22:59:12;7.18;;;5.78;;
47113;SDS011;32867;51.556;6.832;2023-08-17T23:04:14;7.75;;;6.32;;
47113;SDS011;32867;51.556;6.832;2023-08-17T23:09:15;11.27;;;7.47;;
47113;SDS011;32867;51.556;6.832;2023-08-17T23:14:16;12.63;;;9.02;;
47113;SDS011;32867;51.556;6.832;2023-08-17T23:19:19;11.70;;;7.25;;
47113;SDS011;32867;51.556;6.832;2023-08-17T23:24:20;12.05;;;7.53;;
47113;SDS011;32867;51.556;6.832;2023-08-17T23:29:23;11.23;;;7.20;;
47113;SDS011;32867;51.556;6.832;2023-08-17T23:34:23;9.73;;;7.00;;
47113;SDS011;32867;51.556;6.832;2023-08-17T23:39:24;10.45;;;6.78;;
47113;SDS011;32867;51.556;6.832;2023-08-17T23:44:25;11.05;;;7.80;;
47113;SDS011;32867;51.556;6.832;2023-08-17T23:49:30;13.23;;;9.03;;
47113;SDS011;32867;51.556;6.832;2023-08-17T23:54:31;10.85;;;7.13;;
47113;SDS011;32867;51.556;6.832;2023-08-17T23:59:32;11.68;;;7.43;;
